SiS IRONMAN 70.3 OTEPÄÄ
Skip Navigation Links
Results
Leaderboard
Course Map
05 August 2017
HyperLink
Page 1 of 15 (746 items)
[1]234567...12131415
Pos
Race No
Fav
Print
Name
Time
Category
Cat Pos
Gender
Gen Pos
Club
Country
Swim
O/Pos
T1
O/Pos
CycleLap1
Cycle
O/Pos
T2
O/Pos
RunLap1
Run
17Johannes Moldan03:58:27PRO1Male1SV Würzburg 05GER 00:27:101100:02:031101:02:2902:04:13100:01:34100:40:3801:23:27
21Viktor Zyemtsev04:00:41PRO2Male2RedLava TeamUKR 00:26:02400:01:32101:06:3002:14:12300:01:26300:37:4001:17:30
35Markus Thomschke04:04:04PRO3Male3 GER 00:26:04500:02:00601:04:2702:11:37200:02:01200:40:4801:22:24
43Esben Hovgaard04:08:52PRO4Male4KTK86DEN 00:26:01300:01:35201:06:5702:15:07400:01:44400:40:5701:24:28
585Ivo Suur04:14:0925-291Male5Saksa Automaatika ProTeamEST 00:28:101600:02:031501:07:4502:18:50600:01:35600:40:4801:23:32
6750Harri Sokk04:17:0330-341Male6 EST 00:28:242000:02:291701:07:0702:14:54500:01:57500:42:1501:29:21
78Sébastien Jouffret04:20:06PRO5Male7 FRA 00:30:063000:01:442401:09:4002:19:48700:01:41700:41:4601:26:48
812Filip Przymusinski04:21:22PRO6Male8 POL 00:25:59100:01:54501:12:4802:23:51800:02:00900:43:1401:27:40
936Mikkel Mortensen04:21:5725-292Male9Amager Triatlon KlubDEN 00:29:142600:01:592101:10:4402:20:53900:01:25800:43:4301:28:29
1013Julian Beuchert04:22:01PRO7Male10 GER 00:26:04600:01:46401:13:3602:25:371100:01:521100:41:5601:26:44
1142Rait Pallo04:22:2040-441Male11Swedbank SpordiklubiEST 00:33:5710300:01:557701:08:4802:19:351400:01:271200:41:4601:25:28
1225Helle Frederiksen04:24:01PRO1Female1 DEN 00:25:59200:01:48301:11:4402:24:191000:01:481000:42:5801:30:07
13754Artis Davidnieks04:29:3635-391Male12 LAT 00:33:5610200:02:429301:11:5502:25:492600:02:052300:41:2201:25:07
14159Maurice Backschat04:30:2325-293Male13 GER 00:31:445600:02:525801:13:5902:28:172900:02:072800:41:2901:25:25
15380Vladimir Demjantsuk04:31:4735-392Male14AngryBoysEST 00:29:032400:02:062001:16:4802:34:153900:02:134100:41:0001:24:11
16796Priit Ailt04:32:1930-342Male15 EST 00:26:32800:01:40701:14:3302:30:351800:02:031500:43:5101:31:31
17473Rauno Pikkor04:32:4435-393Male16 EST 00:32:508200:02:517401:12:3702:25:382100:01:512000:43:0401:29:35
18777Juuso Manninen04:32:5618-241Male17 FIN 00:27:021000:01:40901:12:2902:26:221200:01:591300:46:3201:35:55
19778Valdur Jaht04:33:0935-394Male18 EST 00:31:455700:01:584301:12:4802:29:123000:01:452600:42:5501:28:31
2055Giovanni Bortolaso04:33:5530-343Male19 ITA 00:30:263400:02:393401:14:0102:29:032200:02:452700:43:2501:29:04
21445Dmitrii Liber04:35:1635-395Male20CycleONRUS 00:28:231900:03:002201:16:3102:33:543800:02:234200:42:0601:27:39
22229Matt Rammo04:35:1825-294Male21 EST 00:37:2722200:02:0216701:13:1002:28:425600:01:385200:41:4801:25:31
23314Roman Lebedev04:35:2030-344Male22TRILIFE.RURUS 00:30:554100:03:014501:13:0202:25:451900:02:561900:44:5901:32:46
24763Marek Nõmm04:37:1535-396Male23 EST 00:36:0817200:01:5211901:13:5102:31:306300:01:315900:40:2301:26:17
2523Maja Stage Nielsen04:37:17PRO2Female2 DEN 00:33:108700:01:566601:14:5002:30:354400:01:443700:43:4201:29:55
26458Karol Kristov04:37:3935-397Male24 EST 00:27:211300:03:011601:14:0502:33:003100:02:313300:44:3001:31:49
27766Raido Luuk04:37:5530-345Male25 EST 00:30:433600:01:422801:15:0002:34:374700:01:484700:44:5801:29:07
2824Annah Watkinson04:38:16PRO3Female3 RSA 00:30:113100:01:542601:17:1302:36:025500:01:585400:43:4301:28:13
29514Rainer Kuhi04:38:1740-442Male2621CC TriatloniklubiEST 00:30:113200:02:142901:12:3402:26:041500:02:301700:48:3501:37:20
30297Oskars Cimermanis04:38:5830-346Male27RIGA IRONMAN TEAMLAT 00:37:4023300:04:2725801:12:2302:25:245200:02:515500:43:3501:28:39
31602Indrek Klampe04:39:1440-443Male28 EST 00:30:433700:02:313601:09:3602:21:561300:02:531400:48:4901:41:14
32321Paul Ruubel04:39:2130-347Male29 EST 00:30:253300:01:562701:12:0602:26:111600:02:211600:48:0601:38:29
33264Pavel Blagikh04:39:2730-348Male30IRONZAICHIKIRUS 00:36:4319000:01:4613901:12:1802:25:203300:01:493200:46:3101:33:51
3467Ahti Suppi04:39:5140-444Male31TriSmileEST 00:36:0216300:02:1613101:11:1202:24:072400:02:122500:46:0101:35:17
35776Kristjan Melikov04:40:2235-398Male32 EST 00:29:322700:02:302501:13:4202:30:132300:01:482200:44:2601:36:22
3668Maksims Zagoruiko04:41:3840-445Male33 LAT 00:31:165000:02:424601:13:3502:28:432700:02:463000:45:5301:36:13
37319Aleksandr Sokolov04:42:0430-349Male34 RUS 00:34:2812100:03:0711201:11:4402:26:423500:02:283500:46:1601:35:21
3864Oleg Mazurov04:43:1735-399Male35CycleONRUS 00:35:4315200:02:2212601:12:4002:28:134500:01:404400:46:2201:35:21
39436Kaspar Loog04:43:3035-3910Male3621CC TriatloniklubiEST 00:36:3218600:02:1015101:14:0002:31:456900:01:556600:45:1601:31:10
40606Dirk Zangen04:43:4540-446Male37 EST 00:29:562800:03:073301:12:0202:25:431700:02:331800:48:3501:42:28
4158Ilya Slepov04:43:5735-3911Male38RunLabRUS 00:31:185200:02:163901:11:3202:28:522500:02:432900:46:1901:38:51
42793Gilber Kask04:44:2630-3410Male39 EST 00:37:1020700:02:4617701:11:2302:26:364600:01:524600:46:1501:36:04
43342Martins Marnauza04:45:2330-3411Male40 LAT 00:32:428100:04:2810301:14:0302:33:006800:02:256900:44:5601:32:51
44556Chris Meier04:46:2740-447Male41 RSA 00:31:064800:02:304001:15:2702:31:554000:02:064000:47:4201:38:52
4570Mait Miller04:46:5840-448Male4221CC TriatloniklubiEST 00:33:259000:02:388101:11:2802:25:112000:02:012100:50:1001:43:45
46107Yury Fediunin04:47:5645-491Male43 RUS 00:36:4619300:03:4220301:11:5702:27:135300:02:075100:47:1301:38:09
4737Riho Rokk04:48:0525-295Male44Garmin Estonia/TrismileEST 00:40:4535400:02:2930101:13:2702:29:107900:02:077700:45:5401:33:36
4849Mark Reynolds04:48:0735-3912Male45Liquid motionIRL 00:30:564200:02:103501:15:2302:32:254100:01:583800:45:0801:40:39
4959Laurynas Mykolaitis04:48:0835-3913Male46SK SportasLTU 00:32:297100:02:426701:13:1902:27:382800:01:452400:49:0401:43:36
5050Igor Luchko04:48:2240-449Male47NoraRUS 00:35:5415700:02:0912301:14:5102:32:467000:01:467000:46:2001:35:50
Page 1 of 15 (746 items)
[1]234567...12131415

HyperLink Copyright (c) G Vincent, 2017